Aviation Digital Data Service (ADDS)

Output produced by METARs form (1112 UTC 22 November 2017)
found at http://aviationweather.gov/adds/metars/
 
KPNE 221017Z 2210/2306 VRB05KT P6SM VCSH OVC060 
     TEMPO 2211/2213 6SM -SHRA BR OVC025 
     FM221500 31006KT P6SM BKN060 
     FM221800 32010G18KT P6SM SCT040 
     FM230200 32009KT P6SM SKC